KCLL/CLL METAR and TAF weather

Enter ICAO airport designator
Station Type Date Time Source
KCLL METAR 2019/08/19 12:27 UTC NOAA

KCLL 191227Z AUTO 10003KT 10SM SCT006 SCT014 BKN020 26/25 A3000 RMK AO2 T02610250


Station Type Date Time Source
KCLL Decoded METAR 2019/08/19 12:27 UTC NOAA

Station name not available
Aug 19, 2019 - 08:27 AM EDT / 2019.08.19 1227 UTC
Wind: from the E (100 degrees) at 3 MPH (3 KT):0
Visibility: 10 mile(s):0
Sky conditions: mostly cloudy
Temperature: 79.0 F (26.1 C)
Dew Point: 77.0 F (25.0 C)
Relative Humidity: 93%
Pressure (altimeter): 30 in. Hg (1015 hPa)
ob: KCLL 191227Z AUTO 10003KT 10SM SCT006 SCT014 BKN020 26/25 A3000 RMK AO2 T02610250
cycle: 12

Station Type Date Time Source
KCLL TAF 2019/08/19 12:27 UTC NOAA

TAF KCLL 191124Z 1912/2012 VRB03KT P6SM BKN009 BKN020
FM191300 18006KT P6SM BKN025
FM191500 19009KT P6SM SCT045
FM192100 16008KT P6SM SCT060
FM200200 16006KT P6SM SKC
FM201000 VRB03KT P6SM SCT020

Example: see airport list